sensor_id;sensor_type;location;lat;lon;timestamp;P1;durP1;ratioP1;P2;durP2;ratioP2
6292;SDS011;3179;54.350;10.102;2023-07-02T00:01:40;9.07;;;2.93;;
6292;SDS011;3179;54.350;10.102;2023-07-02T00:04:14;6.47;;;2.30;;
6292;SDS011;3179;54.350;10.102;2023-07-02T00:06:53;4.20;;;1.90;;
6292;SDS011;3179;54.350;10.102;2023-07-02T00:09:25;4.83;;;1.87;;
6292;SDS011;3179;54.350;10.102;2023-07-02T00:11:55;3.13;;;1.97;;
6292;SDS011;3179;54.350;10.102;2023-07-02T00:14:38;5.77;;;2.10;;
6292;SDS011;3179;54.350;10.102;2023-07-02T00:17:22;8.00;;;2.53;;
6292;SDS011;3179;54.350;10.102;2023-07-02T00:19:55;5.20;;;2.23;;
6292;SDS011;3179;54.350;10.102;2023-07-02T00:22:34;5.97;;;2.57;;
6292;SDS011;3179;54.350;10.102;2023-07-02T00:25:10;4.50;;;2.40;;
6292;SDS011;3179;54.350;10.102;2023-07-02T00:27:41;5.40;;;2.40;;
6292;SDS011;3179;54.350;10.102;2023-07-02T00:30:16;5.90;;;2.57;;
6292;SDS011;3179;54.350;10.102;2023-07-02T00:32:47;7.60;;;2.70;;
6292;SDS011;3179;54.350;10.102;2023-07-02T00:35:28;4.20;;;2.80;;
6292;SDS011;3179;54.350;10.102;2023-07-02T00:38:02;5.63;;;2.43;;
6292;SDS011;3179;54.350;10.102;2023-07-02T00:40:31;10.47;;;2.47;;
6292;SDS011;3179;54.350;10.102;2023-07-02T00:43:09;5.43;;;2.33;;
6292;SDS011;3179;54.350;10.102;2023-07-02T00:45:41;4.10;;;2.40;;
6292;SDS011;3179;54.350;10.102;2023-07-02T00:48:14;5.70;;;2.60;;
6292;SDS011;3179;54.350;10.102;2023-07-02T00:50:50;4.47;;;2.33;;
6292;SDS011;3179;54.350;10.102;2023-07-02T00:53:24;6.47;;;2.30;;
6292;SDS011;3179;54.350;10.102;2023-07-02T00:55:57;3.03;;;2.00;;
6292;SDS011;3179;54.350;10.102;2023-07-02T00:58:31;5.07;;;2.30;;
6292;SDS011;3179;54.350;10.102;2023-07-02T01:01:12;4.80;;;2.70;;
6292;SDS011;3179;54.350;10.102;2023-07-02T01:03:55;35.57;;;3.87;;
6292;SDS011;3179;54.350;10.102;2023-07-02T01:06:30;9.60;;;3.10;;
6292;SDS011;3179;54.350;10.102;2023-07-02T01:09:08;3.87;;;2.47;;
6292;SDS011;3179;54.350;10.102;2023-07-02T01:11:40;4.90;;;2.37;;
6292;SDS011;3179;54.350;10.102;2023-07-02T01:14:15;3.63;;;2.20;;
6292;SDS011;3179;54.350;10.102;2023-07-02T01:16:49;4.90;;;2.27;;
6292;SDS011;3179;54.350;10.102;2023-07-02T01:19:41;9.93;;;3.50;;
6292;SDS011;3179;54.350;10.102;2023-07-02T01:22:19;7.23;;;2.80;;
6292;SDS011;3179;54.350;10.102;2023-07-02T01:24:54;8.17;;;2.90;;
6292;SDS011;3179;54.350;10.102;2023-07-02T01:27:27;7.30;;;2.80;;
6292;SDS011;3179;54.350;10.102;2023-07-02T01:30:01;5.40;;;3.10;;
6292;SDS011;3179;54.350;10.102;2023-07-02T01:32:31;8.03;;;3.27;;
6292;SDS011;3179;54.350;10.102;2023-07-02T01:35:06;9.10;;;3.30;;
6292;SDS011;3179;54.350;10.102;2023-07-02T01:37:38;7.80;;;3.20;;
6292;SDS011;3179;54.350;10.102;2023-07-02T01:40:08;10.97;;;3.33;;
6292;SDS011;3179;54.350;10.102;2023-07-02T01:42:38;5.13;;;3.07;;
6292;SDS011;3179;54.350;10.102;2023-07-02T01:45:05;10.33;;;3.47;;
6292;SDS011;3179;54.350;10.102;2023-07-02T01:47:33;10.33;;;3.03;;
6292;SDS011;3179;54.350;10.102;2023-07-02T01:49:59;6.30;;;2.97;;
6292;SDS011;3179;54.350;10.102;2023-07-02T01:52:27;5.80;;;3.57;;
6292;SDS011;3179;54.350;10.102;2023-07-02T01:54:58;8.20;;;2.83;;
6292;SDS011;3179;54.350;10.102;2023-07-02T01:57:24;8.30;;;3.13;;
6292;SDS011;3179;54.350;10.102;2023-07-02T01:59:51;5.80;;;3.00;;
6292;SDS011;3179;54.350;10.102;2023-07-02T02:02:18;8.80;;;3.20;;
6292;SDS011;3179;54.350;10.102;2023-07-02T02:04:45;5.97;;;2.90;;
6292;SDS011;3179;54.350;10.102;2023-07-02T02:07:11;7.80;;;2.40;;
6292;SDS011;3179;54.350;10.102;2023-07-02T02:09:39;10.73;;;3.10;;
6292;SDS011;3179;54.350;10.102;2023-07-02T02:12:06;6.23;;;3.30;;
6292;SDS011;3179;54.350;10.102;2023-07-02T02:14:33;8.90;;;3.23;;
6292;SDS011;3179;54.350;10.102;2023-07-02T02:17:00;9.63;;;3.17;;
6292;SDS011;3179;54.350;10.102;2023-07-02T02:19:27;7.47;;;2.80;;
6292;SDS011;3179;54.350;10.102;2023-07-02T02:21:54;9.00;;;2.90;;
6292;SDS011;3179;54.350;10.102;2023-07-02T02:24:20;7.53;;;3.87;;
6292;SDS011;3179;54.350;10.102;2023-07-02T02:26:48;7.60;;;3.37;;
6292;SDS011;3179;54.350;10.102;2023-07-02T02:29:15;6.87;;;2.97;;
6292;SDS011;3179;54.350;10.102;2023-07-02T02:31:42;10.43;;;4.13;;
6292;SDS011;3179;54.350;10.102;2023-07-02T02:34:09;10.70;;;3.23;;
6292;SDS011;3179;54.350;10.102;2023-07-02T02:36:36;9.40;;;3.43;;
6292;SDS011;3179;54.350;10.102;2023-07-02T02:39:02;8.43;;;3.77;;
6292;SDS011;3179;54.350;10.102;2023-07-02T02:41:30;10.03;;;3.50;;
6292;SDS011;3179;54.350;10.102;2023-07-02T02:43:58;7.53;;;3.13;;
6292;SDS011;3179;54.350;10.102;2023-07-02T02:46:25;7.60;;;4.20;;
6292;SDS011;3179;54.350;10.102;2023-07-02T02:48:51;7.53;;;4.00;;
6292;SDS011;3179;54.350;10.102;2023-07-02T02:51:18;6.57;;;3.90;;
6292;SDS011;3179;54.350;10.102;2023-07-02T02:53:45;11.00;;;4.00;;
6292;SDS011;3179;54.350;10.102;2023-07-02T02:56:12;14.90;;;4.00;;
6292;SDS011;3179;54.350;10.102;2023-07-02T02:58:39;11.40;;;4.40;;
6292;SDS011;3179;54.350;10.102;2023-07-02T03:01:07;11.07;;;4.10;;
6292;SDS011;3179;54.350;10.102;2023-07-02T03:03:36;12.10;;;4.60;;
6292;SDS011;3179;54.350;10.102;2023-07-02T03:06:04;7.43;;;3.30;;
6292;SDS011;3179;54.350;10.102;2023-07-02T03:08:33;8.90;;;3.67;;
6292;SDS011;3179;54.350;10.102;2023-07-02T03:10:59;9.40;;;4.10;;
6292;SDS011;3179;54.350;10.102;2023-07-02T03:13:26;11.07;;;4.40;;
6292;SDS011;3179;54.350;10.102;2023-07-02T03:15:53;13.43;;;4.47;;
6292;SDS011;3179;54.350;10.102;2023-07-02T03:18:21;10.37;;;4.07;;
6292;SDS011;3179;54.350;10.102;2023-07-02T03:20:48;12.63;;;4.93;;
6292;SDS011;3179;54.350;10.102;2023-07-02T03:23:15;9.40;;;3.90;;
6292;SDS011;3179;54.350;10.102;2023-07-02T03:25:41;14.10;;;4.73;;
6292;SDS011;3179;54.350;10.102;2023-07-02T03:28:08;10.10;;;4.80;;
6292;SDS011;3179;54.350;10.102;2023-07-02T03:30:35;13.13;;;5.10;;
6292;SDS011;3179;54.350;10.102;2023-07-02T03:33:02;14.60;;;5.67;;
6292;SDS011;3179;54.350;10.102;2023-07-02T03:35:30;10.27;;;5.00;;
6292;SDS011;3179;54.350;10.102;2023-07-02T03:37:57;11.87;;;4.83;;
6292;SDS011;3179;54.350;10.102;2023-07-02T03:40:23;11.73;;;5.97;;
6292;SDS011;3179;54.350;10.102;2023-07-02T03:42:50;12.93;;;5.23;;
6292;SDS011;3179;54.350;10.102;2023-07-02T03:45:17;17.03;;;5.90;;
6292;SDS011;3179;54.350;10.102;2023-07-02T03:47:44;12.40;;;5.20;;
6292;SDS011;3179;54.350;10.102;2023-07-02T03:50:11;12.83;;;5.00;;
6292;SDS011;3179;54.350;10.102;2023-07-02T03:52:39;12.37;;;5.00;;
6292;SDS011;3179;54.350;10.102;2023-07-02T03:55:06;12.13;;;5.37;;
6292;SDS011;3179;54.350;10.102;2023-07-02T03:57:33;11.30;;;5.47;;
6292;SDS011;3179;54.350;10.102;2023-07-02T04:00:00;13.40;;;5.60;;
6292;SDS011;3179;54.350;10.102;2023-07-02T04:02:27;16.33;;;5.37;;
6292;SDS011;3179;54.350;10.102;2023-07-02T04:04:54;12.53;;;4.83;;
6292;SDS011;3179;54.350;10.102;2023-07-02T04:07:20;11.93;;;5.20;;
6292;SDS011;3179;54.350;10.102;2023-07-02T04:09:48;14.80;;;4.90;;
6292;SDS011;3179;54.350;10.102;2023-07-02T04:12:15;9.80;;;5.23;;
6292;SDS011;3179;54.350;10.102;2023-07-02T04:14:42;12.07;;;5.03;;
6292;SDS011;3179;54.350;10.102;2023-07-02T04:17:09;10.57;;;5.17;;
6292;SDS011;3179;54.350;10.102;2023-07-02T04:19:35;11.17;;;4.73;;
6292;SDS011;3179;54.350;10.102;2023-07-02T04:22:02;12.13;;;4.60;;
6292;SDS011;3179;54.350;10.102;2023-07-02T04:24:29;13.17;;;5.80;;
6292;SDS011;3179;54.350;10.102;2023-07-02T04:26:57;11.27;;;5.20;;
6292;SDS011;3179;54.350;10.102;2023-07-02T04:29:24;10.60;;;4.43;;
6292;SDS011;3179;54.350;10.102;2023-07-02T04:31:51;9.27;;;4.40;;
6292;SDS011;3179;54.350;10.102;2023-07-02T04:34:18;11.73;;;4.93;;
6292;SDS011;3179;54.350;10.102;2023-07-02T04:36:46;12.03;;;5.10;;
6292;SDS011;3179;54.350;10.102;2023-07-02T04:39:13;16.60;;;4.40;;
6292;SDS011;3179;54.350;10.102;2023-07-02T04:41:40;9.40;;;4.67;;
6292;SDS011;3179;54.350;10.102;2023-07-02T04:44:08;15.00;;;4.57;;
6292;SDS011;3179;54.350;10.102;2023-07-02T04:46:35;13.80;;;4.97;;
6292;SDS011;3179;54.350;10.102;2023-07-02T04:49:02;9.47;;;4.30;;
6292;SDS011;3179;54.350;10.102;2023-07-02T04:51:29;8.67;;;4.40;;
6292;SDS011;3179;54.350;10.102;2023-07-02T04:53:56;9.90;;;4.87;;
6292;SDS011;3179;54.350;10.102;2023-07-02T04:56:23;9.03;;;4.43;;
6292;SDS011;3179;54.350;10.102;2023-07-02T04:58:49;15.33;;;4.70;;
6292;SDS011;3179;54.350;10.102;2023-07-02T05:01:17;12.17;;;4.90;;
6292;SDS011;3179;54.350;10.102;2023-07-02T05:03:45;17.87;;;5.30;;
6292;SDS011;3179;54.350;10.102;2023-07-02T05:06:12;11.43;;;4.63;;
6292;SDS011;3179;54.350;10.102;2023-07-02T05:08:38;8.70;;;4.40;;
6292;SDS011;3179;54.350;10.102;2023-07-02T05:11:05;9.57;;;4.50;;
6292;SDS011;3179;54.350;10.102;2023-07-02T05:13:33;8.47;;;4.27;;
6292;SDS011;3179;54.350;10.102;2023-07-02T05:15:59;10.03;;;4.30;;
6292;SDS011;3179;54.350;10.102;2023-07-02T05:18:27;8.83;;;4.57;;
6292;SDS011;3179;54.350;10.102;2023-07-02T05:20:54;7.73;;;4.43;;
6292;SDS011;3179;54.350;10.102;2023-07-02T05:23:21;7.87;;;4.17;;
6292;SDS011;3179;54.350;10.102;2023-07-02T05:25:48;6.17;;;4.00;;
6292;SDS011;3179;54.350;10.102;2023-07-02T05:28:14;8.57;;;4.47;;
6292;SDS011;3179;54.350;10.102;2023-07-02T05:30:44;11.30;;;5.20;;
6292;SDS011;3179;54.350;10.102;2023-07-02T05:33:12;7.23;;;4.03;;
6292;SDS011;3179;54.350;10.102;2023-07-02T05:35:40;7.80;;;3.87;;
6292;SDS011;3179;54.350;10.102;2023-07-02T05:38:07;7.90;;;4.60;;
6292;SDS011;3179;54.350;10.102;2023-07-02T05:40:34;8.10;;;4.53;;
6292;SDS011;3179;54.350;10.102;2023-07-02T05:43:01;10.47;;;5.40;;
6292;SDS011;3179;54.350;10.102;2023-07-02T05:45:28;9.53;;;4.63;;
6292;SDS011;3179;54.350;10.102;2023-07-02T05:47:55;7.27;;;4.50;;
6292;SDS011;3179;54.350;10.102;2023-07-02T05:50:21;8.27;;;4.70;;
6292;SDS011;3179;54.350;10.102;2023-07-02T05:52:50;12.90;;;5.10;;
6292;SDS011;3179;54.350;10.102;2023-07-02T05:55:17;11.40;;;4.87;;
6292;SDS011;3179;54.350;10.102;2023-07-02T05:57:44;10.77;;;4.43;;
6292;SDS011;3179;54.350;10.102;2023-07-02T06:00:11;8.10;;;5.17;;
6292;SDS011;3179;54.350;10.102;2023-07-02T06:02:41;7.90;;;4.00;;
6292;SDS011;3179;54.350;10.102;2023-07-02T06:05:08;9.33;;;4.63;;
6292;SDS011;3179;54.350;10.102;2023-07-02T06:07:35;11.23;;;5.40;;
6292;SDS011;3179;54.350;10.102;2023-07-02T06:10:03;12.50;;;5.47;;
6292;SDS011;3179;54.350;10.102;2023-07-02T06:12:30;7.77;;;5.03;;
6292;SDS011;3179;54.350;10.102;2023-07-02T06:14:57;8.20;;;4.70;;
6292;SDS011;3179;54.350;10.102;2023-07-02T06:17:24;10.53;;;5.57;;
6292;SDS011;3179;54.350;10.102;2023-07-02T06:19:50;11.07;;;5.53;;
6292;SDS011;3179;54.350;10.102;2023-07-02T06:22:17;9.70;;;4.83;;
6292;SDS011;3179;54.350;10.102;2023-07-02T06:24:44;9.63;;;5.37;;
6292;SDS011;3179;54.350;10.102;2023-07-02T06:27:12;7.90;;;5.40;;
6292;SDS011;3179;54.350;10.102;2023-07-02T06:29:39;10.47;;;5.30;;
6292;SDS011;3179;54.350;10.102;2023-07-02T06:32:06;9.47;;;5.33;;
6292;SDS011;3179;54.350;10.102;2023-07-02T06:34:33;12.37;;;4.67;;
6292;SDS011;3179;54.350;10.102;2023-07-02T06:37:01;7.40;;;4.60;;
6292;SDS011;3179;54.350;10.102;2023-07-02T06:39:29;12.17;;;4.80;;
6292;SDS011;3179;54.350;10.102;2023-07-02T06:41:56;8.07;;;4.23;;
6292;SDS011;3179;54.350;10.102;2023-07-02T06:44:24;7.90;;;4.83;;
6292;SDS011;3179;54.350;10.102;2023-07-02T06:46:55;9.43;;;5.70;;
6292;SDS011;3179;54.350;10.102;2023-07-02T06:49:23;8.50;;;4.53;;
6292;SDS011;3179;54.350;10.102;2023-07-02T06:51:50;9.97;;;4.67;;
6292;SDS011;3179;54.350;10.102;2023-07-02T06:54:20;12.03;;;4.90;;
6292;SDS011;3179;54.350;10.102;2023-07-02T06:56:48;7.40;;;4.63;;
6292;SDS011;3179;54.350;10.102;2023-07-02T06:59:18;9.60;;;3.60;;
6292;SDS011;3179;54.350;10.102;2023-07-02T07:01:47;5.17;;;3.93;;
6292;SDS011;3179;54.350;10.102;2023-07-02T07:04:15;8.50;;;4.40;;
6292;SDS011;3179;54.350;10.102;2023-07-02T07:06:42;7.90;;;4.60;;
6292;SDS011;3179;54.350;10.102;2023-07-02T07:09:10;10.30;;;4.50;;
6292;SDS011;3179;54.350;10.102;2023-07-02T07:11:41;8.20;;;4.10;;
6292;SDS011;3179;54.350;10.102;2023-07-02T07:14:07;8.17;;;4.40;;
6292;SDS011;3179;54.350;10.102;2023-07-02T07:16:34;8.80;;;4.03;;
6292;SDS011;3179;54.350;10.102;2023-07-02T07:19:02;7.10;;;4.27;;
6292;SDS011;3179;54.350;10.102;2023-07-02T07:21:29;5.73;;;3.93;;
6292;SDS011;3179;54.350;10.102;2023-07-02T07:23:56;8.60;;;3.43;;
6292;SDS011;3179;54.350;10.102;2023-07-02T07:26:23;9.93;;;4.40;;
6292;SDS011;3179;54.350;10.102;2023-07-02T07:28:50;7.97;;;4.00;;
6292;SDS011;3179;54.350;10.102;2023-07-02T07:31:22;15.90;;;4.57;;
6292;SDS011;3179;54.350;10.102;2023-07-02T07:33:49;7.10;;;4.07;;
6292;SDS011;3179;54.350;10.102;2023-07-02T07:36:17;9.93;;;4.43;;
6292;SDS011;3179;54.350;10.102;2023-07-02T07:38:45;7.50;;;3.63;;
6292;SDS011;3179;54.350;10.102;2023-07-02T07:41:12;8.80;;;4.00;;
6292;SDS011;3179;54.350;10.102;2023-07-02T07:43:39;9.17;;;4.10;;
6292;SDS011;3179;54.350;10.102;2023-07-02T07:46:06;6.00;;;3.70;;
6292;SDS011;3179;54.350;10.102;2023-07-02T07:48:33;8.90;;;3.67;;
6292;SDS011;3179;54.350;10.102;2023-07-02T07:51:00;6.10;;;3.27;;
6292;SDS011;3179;54.350;10.102;2023-07-02T07:53:31;8.60;;;4.67;;
6292;SDS011;3179;54.350;10.102;2023-07-02T07:55:58;10.80;;;4.40;;
6292;SDS011;3179;54.350;10.102;2023-07-02T07:58:25;8.60;;;4.23;;
6292;SDS011;3179;54.350;10.102;2023-07-02T08:00:57;6.90;;;3.70;;
6292;SDS011;3179;54.350;10.102;2023-07-02T08:03:24;11.40;;;4.43;;
6292;SDS011;3179;54.350;10.102;2023-07-02T08:05:50;4.83;;;3.20;;
6292;SDS011;3179;54.350;10.102;2023-07-02T08:08:17;13.93;;;4.43;;
6292;SDS011;3179;54.350;10.102;2023-07-02T08:10:45;10.47;;;4.13;;
6292;SDS011;3179;54.350;10.102;2023-07-02T08:13:14;14.63;;;4.50;;
6292;SDS011;3179;54.350;10.102;2023-07-02T08:15:42;9.20;;;4.20;;
6292;SDS011;3179;54.350;10.102;2023-07-02T08:18:09;7.03;;;3.90;;
6292;SDS011;3179;54.350;10.102;2023-07-02T08:20:36;9.27;;;3.47;;
6292;SDS011;3179;54.350;10.102;2023-07-02T08:23:03;9.00;;;4.10;;
6292;SDS011;3179;54.350;10.102;2023-07-02T08:25:30;10.87;;;3.67;;
6292;SDS011;3179;54.350;10.102;2023-07-02T08:27:58;10.63;;;3.30;;
6292;SDS011;3179;54.350;10.102;2023-07-02T08:30:25;4.37;;;2.90;;
6292;SDS011;3179;54.350;10.102;2023-07-02T08:32:52;6.87;;;3.17;;
6292;SDS011;3179;54.350;10.102;2023-07-02T08:35:20;5.20;;;3.20;;
6292;SDS011;3179;54.350;10.102;2023-07-02T08:37:47;4.23;;;2.47;;
6292;SDS011;3179;54.350;10.102;2023-07-02T08:40:18;7.97;;;3.17;;
6292;SDS011;3179;54.350;10.102;2023-07-02T08:42:45;9.40;;;3.77;;
6292;SDS011;3179;54.350;10.102;2023-07-02T08:45:14;5.23;;;2.87;;
6292;SDS011;3179;54.350;10.102;2023-07-02T08:47:42;10.80;;;2.93;;
6292;SDS011;3179;54.350;10.102;2023-07-02T08:50:09;7.40;;;2.93;;
6292;SDS011;3179;54.350;10.102;2023-07-02T08:52:37;4.33;;;2.40;;
6292;SDS011;3179;54.350;10.102;2023-07-02T08:55:04;4.60;;;2.60;;
6292;SDS011;3179;54.350;10.102;2023-07-02T08:57:32;5.57;;;2.80;;
6292;SDS011;3179;54.350;10.102;2023-07-02T09:00:00;5.13;;;2.40;;
6292;SDS011;3179;54.350;10.102;2023-07-02T09:02:32;9.50;;;3.63;;
6292;SDS011;3179;54.350;10.102;2023-07-02T09:04:59;6.47;;;3.13;;
6292;SDS011;3179;54.350;10.102;2023-07-02T09:07:26;8.47;;;3.20;;
6292;SDS011;3179;54.350;10.102;2023-07-02T09:09:53;10.93;;;3.20;;
6292;SDS011;3179;54.350;10.102;2023-07-02T09:12:24;7.27;;;2.80;;
6292;SDS011;3179;54.350;10.102;2023-07-02T09:14:55;5.40;;;2.80;;
6292;SDS011;3179;54.350;10.102;2023-07-02T09:17:26;12.87;;;3.47;;
6292;SDS011;3179;54.350;10.102;2023-07-02T09:19:57;9.53;;;4.10;;
6292;SDS011;3179;54.350;10.102;2023-07-02T09:22:27;7.97;;;3.77;;
6292;SDS011;3179;54.350;10.102;2023-07-02T09:24:55;6.20;;;2.77;;
6292;SDS011;3179;54.350;10.102;2023-07-02T09:27:32;7.03;;;3.13;;
6292;SDS011;3179;54.350;10.102;2023-07-02T09:30:05;7.83;;;3.60;;
6292;SDS011;3179;54.350;10.102;2023-07-02T09:32:32;7.37;;;3.43;;
6292;SDS011;3179;54.350;10.102;2023-07-02T09:35:01;7.97;;;3.57;;
6292;SDS011;3179;54.350;10.102;2023-07-02T09:37:29;6.97;;;2.90;;
6292;SDS011;3179;54.350;10.102;2023-07-02T09:39:56;9.30;;;3.40;;
6292;SDS011;3179;54.350;10.102;2023-07-02T09:42:24;12.00;;;3.63;;
6292;SDS011;3179;54.350;10.102;2023-07-02T09:44:52;11.70;;;3.30;;
6292;SDS011;3179;54.350;10.102;2023-07-02T09:47:20;10.57;;;3.20;;
6292;SDS011;3179;54.350;10.102;2023-07-02T09:49:49;12.67;;;3.20;;
6292;SDS011;3179;54.350;10.102;2023-07-02T09:52:21;7.30;;;2.67;;
6292;SDS011;3179;54.350;10.102;2023-07-02T09:54:48;7.50;;;3.37;;
6292;SDS011;3179;54.350;10.102;2023-07-02T09:57:15;11.03;;;4.00;;
6292;SDS011;3179;54.350;10.102;2023-07-02T09:59:42;9.93;;;3.37;;
6292;SDS011;3179;54.350;10.102;2023-07-02T10:02:09;9.30;;;3.40;;
6292;SDS011;3179;54.350;10.102;2023-07-02T10:04:40;8.70;;;3.37;;
6292;SDS011;3179;54.350;10.102;2023-07-02T10:07:08;7.77;;;2.67;;
6292;SDS011;3179;54.350;10.102;2023-07-02T10:09:37;10.80;;;3.63;;
6292;SDS011;3179;54.350;10.102;2023-07-02T10:12:18;9.47;;;3.00;;
6292;SDS011;3179;54.350;10.102;2023-07-02T10:14:45;10.50;;;3.13;;
6292;SDS011;3179;54.350;10.102;2023-07-02T10:17:22;9.70;;;3.30;;
6292;SDS011;3179;54.350;10.102;2023-07-02T10:19:50;5.87;;;3.10;;
6292;SDS011;3179;54.350;10.102;2023-07-02T10:22:17;8.80;;;2.90;;
6292;SDS011;3179;54.350;10.102;2023-07-02T10:24:51;10.20;;;3.53;;
6292;SDS011;3179;54.350;10.102;2023-07-02T10:27:19;6.10;;;2.97;;
6292;SDS011;3179;54.350;10.102;2023-07-02T10:29:49;10.83;;;3.30;;
6292;SDS011;3179;54.350;10.102;2023-07-02T10:32:25;6.53;;;3.00;;
6292;SDS011;3179;54.350;10.102;2023-07-02T10:34:53;9.40;;;3.10;;
6292;SDS011;3179;54.350;10.102;2023-07-02T10:37:21;7.30;;;2.43;;
6292;SDS011;3179;54.350;10.102;2023-07-02T10:39:48;7.97;;;2.70;;
6292;SDS011;3179;54.350;10.102;2023-07-02T10:42:18;7.50;;;2.70;;
6292;SDS011;3179;54.350;10.102;2023-07-02T10:44:49;6.40;;;2.50;;
6292;SDS011;3179;54.350;10.102;2023-07-02T10:47:17;6.17;;;2.30;;
6292;SDS011;3179;54.350;10.102;2023-07-02T10:49:43;6.53;;;2.33;;
6292;SDS011;3179;54.350;10.102;2023-07-02T10:52:10;4.80;;;2.20;;
6292;SDS011;3179;54.350;10.102;2023-07-02T10:54:38;6.67;;;2.50;;
6292;SDS011;3179;54.350;10.102;2023-07-02T10:57:06;8.70;;;2.40;;
6292;SDS011;3179;54.350;10.102;2023-07-02T10:59:35;11.50;;;3.23;;
6292;SDS011;3179;54.350;10.102;2023-07-02T11:02:02;8.03;;;2.93;;
6292;SDS011;3179;54.350;10.102;2023-07-02T11:04:29;4.00;;;2.67;;
6292;SDS011;3179;54.350;10.102;2023-07-02T11:06:56;12.10;;;2.90;;
6292;SDS011;3179;54.350;10.102;2023-07-02T11:09:23;9.83;;;2.80;;
6292;SDS011;3179;54.350;10.102;2023-07-02T11:11:51;6.23;;;2.50;;
6292;SDS011;3179;54.350;10.102;2023-07-02T11:14:28;5.97;;;2.17;;
6292;SDS011;3179;54.350;10.102;2023-07-02T11:16:58;3.90;;;1.83;;
6292;SDS011;3179;54.350;10.102;2023-07-02T11:19:27;11.53;;;2.60;;
6292;SDS011;3179;54.350;10.102;2023-07-02T11:21:54;14.20;;;3.10;;
6292;SDS011;3179;54.350;10.102;2023-07-02T11:24:30;5.50;;;2.40;;
6292;SDS011;3179;54.350;10.102;2023-07-02T11:26:58;7.93;;;2.50;;
6292;SDS011;3179;54.350;10.102;2023-07-02T11:29:25;12.43;;;3.23;;
6292;SDS011;3179;54.350;10.102;2023-07-02T11:31:52;9.70;;;2.73;;
6292;SDS011;3179;54.350;10.102;2023-07-02T11:34:21;5.23;;;2.27;;
6292;SDS011;3179;54.350;10.102;2023-07-02T11:36:48;7.43;;;2.50;;
6292;SDS011;3179;54.350;10.102;2023-07-02T11:39:18;11.13;;;2.77;;
6292;SDS011;3179;54.350;10.102;2023-07-02T11:41:45;8.90;;;3.10;;
6292;SDS011;3179;54.350;10.102;2023-07-02T11:44:13;4.03;;;2.03;;
6292;SDS011;3179;54.350;10.102;2023-07-02T11:46:40;4.67;;;2.50;;
6292;SDS011;3179;54.350;10.102;2023-07-02T11:49:07;10.53;;;3.17;;
6292;SDS011;3179;54.350;10.102;2023-07-02T11:51:36;6.40;;;2.70;;
6292;SDS011;3179;54.350;10.102;2023-07-02T11:54:03;11.40;;;3.90;;
6292;SDS011;3179;54.350;10.102;2023-07-02T11:56:30;6.47;;;2.70;;
6292;SDS011;3179;54.350;10.102;2023-07-02T11:58:57;5.97;;;2.80;;
6292;SDS011;3179;54.350;10.102;2023-07-02T12:01:24;7.00;;;2.30;;
6292;SDS011;3179;54.350;10.102;2023-07-02T12:03:52;3.97;;;1.53;;
6292;SDS011;3179;54.350;10.102;2023-07-02T12:06:19;5.20;;;2.50;;
6292;SDS011;3179;54.350;10.102;2023-07-02T12:08:47;4.90;;;2.67;;
6292;SDS011;3179;54.350;10.102;2023-07-02T12:11:14;4.73;;;2.33;;
6292;SDS011;3179;54.350;10.102;2023-07-02T12:13:41;9.80;;;2.40;;
6292;SDS011;3179;54.350;10.102;2023-07-02T12:16:08;6.07;;;2.47;;
6292;SDS011;3179;54.350;10.102;2023-07-02T12:18:35;7.07;;;2.37;;
6292;SDS011;3179;54.350;10.102;2023-07-02T12:21:01;17.57;;;3.40;;
6292;SDS011;3179;54.350;10.102;2023-07-02T12:23:28;7.73;;;3.07;;
6292;SDS011;3179;54.350;10.102;2023-07-02T12:25:56;6.53;;;2.63;;
6292;SDS011;3179;54.350;10.102;2023-07-02T12:28:23;9.40;;;2.60;;
6292;SDS011;3179;54.350;10.102;2023-07-02T12:30:50;15.30;;;2.70;;
6292;SDS011;3179;54.350;10.102;2023-07-02T12:33:17;7.00;;;2.67;;
6292;SDS011;3179;54.350;10.102;2023-07-02T12:35:44;7.20;;;2.30;;
6292;SDS011;3179;54.350;10.102;2023-07-02T12:38:10;6.00;;;2.23;;
6292;SDS011;3179;54.350;10.102;2023-07-02T12:40:39;6.50;;;2.30;;
6292;SDS011;3179;54.350;10.102;2023-07-02T12:43:07;6.30;;;2.13;;
6292;SDS011;3179;54.350;10.102;2023-07-02T12:45:34;10.90;;;2.60;;
6292;SDS011;3179;54.350;10.102;2023-07-02T12:48:01;5.50;;;2.00;;
6292;SDS011;3179;54.350;10.102;2023-07-02T12:50:27;6.83;;;2.40;;
6292;SDS011;3179;54.350;10.102;2023-07-02T12:52:54;7.80;;;2.37;;
6292;SDS011;3179;54.350;10.102;2023-07-02T12:55:21;3.97;;;1.80;;
6292;SDS011;3179;54.350;10.102;2023-07-02T12:57:48;7.23;;;2.00;;
6292;SDS011;3179;54.350;10.102;2023-07-02T13:00:16;4.00;;;1.53;;
6292;SDS011;3179;54.350;10.102;2023-07-02T13:02:44;4.30;;;1.93;;
6292;SDS011;3179;54.350;10.102;2023-07-02T13:05:11;6.50;;;1.80;;
6292;SDS011;3179;54.350;10.102;2023-07-02T13:07:38;2.67;;;1.60;;
6292;SDS011;3179;54.350;10.102;2023-07-02T13:10:05;6.10;;;1.93;;
6292;SDS011;3179;54.350;10.102;2023-07-02T13:12:33;6.77;;;1.80;;
6292;SDS011;3179;54.350;10.102;2023-07-02T13:14:59;6.50;;;1.90;;
6292;SDS011;3179;54.350;10.102;2023-07-02T13:17:27;3.97;;;1.73;;
6292;SDS011;3179;54.350;10.102;2023-07-02T13:19:54;5.63;;;1.70;;
6292;SDS011;3179;54.350;10.102;2023-07-02T13:22:22;6.93;;;1.93;;
6292;SDS011;3179;54.350;10.102;2023-07-02T13:24:49;2.83;;;1.43;;
6292;SDS011;3179;54.350;10.102;2023-07-02T13:27:15;6.37;;;1.67;;
6292;SDS011;3179;54.350;10.102;2023-07-02T13:29:44;3.10;;;1.50;;
6292;SDS011;3179;54.350;10.102;2023-07-02T13:32:11;11.77;;;2.13;;
6292;SDS011;3179;54.350;10.102;2023-07-02T13:34:39;7.50;;;1.50;;
6292;SDS011;3179;54.350;10.102;2023-07-02T13:37:05;5.27;;;2.10;;
6292;SDS011;3179;54.350;10.102;2023-07-02T13:39:33;11.63;;;2.37;;
6292;SDS011;3179;54.350;10.102;2023-07-02T13:42:00;5.33;;;2.37;;
6292;SDS011;3179;54.350;10.102;2023-07-02T13:44:27;14.23;;;2.40;;
6292;SDS011;3179;54.350;10.102;2023-07-02T13:46:53;4.90;;;1.70;;
6292;SDS011;3179;54.350;10.102;2023-07-02T13:49:20;5.17;;;1.77;;
6292;SDS011;3179;54.350;10.102;2023-07-02T13:51:48;7.43;;;2.27;;
6292;SDS011;3179;54.350;10.102;2023-07-02T13:54:15;4.20;;;1.73;;
6292;SDS011;3179;54.350;10.102;2023-07-02T13:56:43;4.73;;;1.90;;
6292;SDS011;3179;54.350;10.102;2023-07-02T13:59:12;3.30;;;1.50;;
6292;SDS011;3179;54.350;10.102;2023-07-02T14:01:41;9.53;;;2.10;;
6292;SDS011;3179;54.350;10.102;2023-07-02T14:04:09;6.03;;;2.40;;
6292;SDS011;3179;54.350;10.102;2023-07-02T14:06:36;6.87;;;2.00;;
6292;SDS011;3179;54.350;10.102;2023-07-02T14:09:03;6.00;;;2.07;;
6292;SDS011;3179;54.350;10.102;2023-07-02T14:11:31;4.10;;;1.97;;
6292;SDS011;3179;54.350;10.102;2023-07-02T14:13:58;2.53;;;1.60;;
6292;SDS011;3179;54.350;10.102;2023-07-02T14:16:27;4.83;;;2.37;;
6292;SDS011;3179;54.350;10.102;2023-07-02T14:18:53;8.90;;;2.27;;
6292;SDS011;3179;54.350;10.102;2023-07-02T14:21:20;6.10;;;2.47;;
6292;SDS011;3179;54.350;10.102;2023-07-02T14:23:47;3.83;;;2.07;;
6292;SDS011;3179;54.350;10.102;2023-07-02T14:26:14;5.03;;;2.03;;
6292;SDS011;3179;54.350;10.102;2023-07-02T14:28:41;6.80;;;2.40;;
6292;SDS011;3179;54.350;10.102;2023-07-02T14:31:07;8.47;;;2.37;;
6292;SDS011;3179;54.350;10.102;2023-07-02T14:33:36;8.10;;;2.57;;
6292;SDS011;3179;54.350;10.102;2023-07-02T14:36:04;5.10;;;2.30;;
6292;SDS011;3179;54.350;10.102;2023-07-02T14:38:33;6.73;;;2.53;;
6292;SDS011;3179;54.350;10.102;2023-07-02T14:41:01;10.43;;;3.33;;
6292;SDS011;3179;54.350;10.102;2023-07-02T14:43:28;6.30;;;1.87;;
6292;SDS011;3179;54.350;10.102;2023-07-02T14:45:56;5.43;;;2.03;;
6292;SDS011;3179;54.350;10.102;2023-07-02T14:48:26;5.90;;;2.10;;
6292;SDS011;3179;54.350;10.102;2023-07-02T14:50:55;6.97;;;2.13;;
6292;SDS011;3179;54.350;10.102;2023-07-02T14:53:23;6.20;;;2.07;;
6292;SDS011;3179;54.350;10.102;2023-07-02T14:55:53;8.43;;;2.37;;
6292;SDS011;3179;54.350;10.102;2023-07-02T14:58:21;6.77;;;2.20;;
6292;SDS011;3179;54.350;10.102;2023-07-02T15:00:49;6.17;;;2.00;;
6292;SDS011;3179;54.350;10.102;2023-07-02T15:03:17;4.67;;;2.27;;
6292;SDS011;3179;54.350;10.102;2023-07-02T15:05:45;7.40;;;2.10;;